Aviation Digital Data Service (ADDS)

Output produced by METARs form (0228 UTC 27 January 2022)
found at http://aviationweather.gov/metar/data/
 
METAR text: KCCU 270215Z AUTO 00000KT 10SM CLR M11/M17 A3008 RMK AO2
Conditions at: KCCU (RED CLIFF PASS , CO, US) observed 0215 UTC 27 January 2022
Temperature: -11.0°C (12°F)
Dewpoint: -17.0°C ( 1°F) [RH = 61%]
Pressure (altimeter): 30.08 inches Hg (1018.7 mb)
Winds: calm
Visibility: 10 or more miles (16+ km)
Ceiling: at least 12,000 feet AGL
Clouds: sky clear below 12,000 feet AGL
Weather: automated observation with no human augmentation;
there may or may not be significant weather present at this time

METAR text: KCCU 270155Z AUTO 21003KT 10SM CLR M11/M16 A3008 RMK AO2
Conditions at: KCCU (RED CLIFF PASS , CO, US) observed 0155 UTC 27 January 2022
Temperature: -11.0°C (12°F)
Dewpoint: -16.0°C ( 3°F) [RH = 67%]
Pressure (altimeter): 30.08 inches Hg (1018.7 mb)
Winds: from the SSW (210 degrees) at 3 MPH (3 knots; 1.5 m/s)
Visibility: 10 or more miles (16+ km)
Ceiling: at least 12,000 feet AGL
Clouds: sky clear below 12,000 feet AGL
Weather: automated observation with no human augmentation;
there may or may not be significant weather present at this time

METAR text: KCCU 270135Z AUTO 26006KT 10SM CLR M11/M17 A3007 RMK AO2
Conditions at: KCCU (RED CLIFF PASS , CO, US) observed 0135 UTC 27 January 2022
Temperature: -11.0°C (12°F)
Dewpoint: -17.0°C ( 1°F) [RH = 61%]
Pressure (altimeter): 30.07 inches Hg (1018.4 mb)
Winds: from the W (260 degrees) at 7 MPH (6 knots; 3.1 m/s)
Visibility: 10 or more miles (16+ km)
Ceiling: at least 12,000 feet AGL
Clouds: sky clear below 12,000 feet AGL
Weather: automated observation with no human augmentation;
there may or may not be significant weather present at this time